Airfield :







YOU CAN JOIN US ON...

 
LOGIN :

Register | Disclaimer

   EN    FR    IT 

 









Legend :    VFR   Marginal VFR   IFR   Intensive IFR   Very Intensive IFR
Visi :
Ceiling :
>= 8 km
>= 3000ft
5 to 8 km
1000 to 3000 ft
1500m to 5 km
500 to 1000 ft
800 to 1500m
200 to 500 ft
< 800m
< 200 ft
Symbols :   Thunderstorms  Fog  Heavy snow  Heavy precipitations  Wind > 20 kt







- Airport Elevation : 124 ft
- IATA code : YGV


CYGV - Havre St Pierre

CURRENT METAR :
  • 202000Z AUTO 14009KT 9SM SCT009 OVC035 15/13 A2957 RMK SLP016 DENSITY ALT 500FT

EXPIRED METARs :
  • 201949Z AUTO 14009KT 9SM SCT009 OVC033 15/13 A2957 RMK SLP015 DENSITY ALT 500FT
  • 201920Z AUTO 10008KT 080V140 9SM OVC009 16/13 A2958 RMK SLP018 DENSITY ALT 600FT
  • 201900Z AUTO 10008G15KT 080V140 9SM OVC007 15/13 A2957 RMK SLP017 DENSITY ALT 500FT
  • 201834Z AUTO 10010KT 9SM OVC007 15/13 A2958 RMK SLP019 DENSITY ALT 500FT
  • 201800Z AUTO 13009G15KT 090V150 9SM OVC009 15/13 A2959 RMK SLP022 DENSITY ALT 500FT

TAF AMD TAF CYGV
Valid from the 20 at 20:00 until the 21 at 08:00 UTC


202008Z 2020/2108 14010KT P6SM -SHRA OVC005
TEMPO 2020/2102 P6SM NSW SCT005 OVC030
FM210200 10005KT P6SM -SHRA OVC005
PROB40 2102/2108 1/2SM FG OVC002 RMK FCST BASED ON AUTO OBS. NXT FCST BY 210200Z
CZUL FIR / North America



MET'MAP, your aeronautical weather chart ! - Copyright ORBIFLY December 2007 - Disclaimer

ORBIFLY MET'MAP TEAM :

Programming & Development : Alexandra Zaïnal
Concept & Development : Baudouin d'Aumeries
Co-Development & Prog : Marc-Olivier Méhu
Technical & hardware support : Manuel Goepfert

Contact : metmap@orbifly.com




SOURCES & CREDITS :

   NOAA